createdAt,value
2022-11-10T12:43:00.126Z,18.60
2022-11-10T12:46:06.570Z,18.80
2022-11-10T12:49:18.234Z,18.80
2022-11-10T12:52:25.884Z,18.70
2022-11-10T12:55:34.556Z,18.50
2022-11-10T12:58:38.894Z,18.40
2022-11-10T13:01:45.204Z,18.30
2022-11-10T13:05:08.049Z,18.30
2022-11-10T13:08:30.674Z,18.50
2022-11-10T13:11:35.539Z,18.70
2022-11-10T13:14:40.332Z,19.00
2022-11-10T13:17:56.360Z,19.20
2022-11-10T13:20:59.864Z,19.40
2022-11-10T13:24:30.470Z,19.40
2022-11-10T13:27:53.422Z,19.50
2022-11-10T13:30:57.775Z,19.50
2022-11-10T13:34:10.352Z,19.30
2022-11-10T13:37:50.644Z,19.30
2022-11-10T13:40:53.723Z,19.20
2022-11-10T13:43:57.450Z,18.80
2022-11-10T13:47:36.507Z,18.60
2022-11-10T13:50:51.827Z,18.50
2022-11-10T13:54:14.778Z,18.20
2022-11-10T13:57:30.114Z,18.70
2022-11-10T14:00:34.659Z,18.70
2022-11-10T14:04:00.393Z,18.80
2022-11-10T14:07:05.781Z,18.70
2022-11-10T14:10:15.176Z,18.60
2022-11-10T14:13:24.028Z,18.60
2022-11-10T14:16:29.964Z,18.50
2022-11-10T14:19:39.545Z,18.40
2022-11-10T14:22:43.982Z,18.20
2022-11-10T14:25:55.071Z,18.20
2022-11-10T14:28:58.038Z,18.00
2022-11-10T14:32:04.055Z,18.00
2022-11-10T14:35:20.802Z,17.90
2022-11-10T14:38:26.140Z,17.70
2022-11-10T14:41:29.067Z,17.60
2022-11-10T14:44:33.272Z,17.60
2022-11-10T14:47:37.608Z,17.60
2022-11-10T14:50:42.010Z,17.60
2022-11-10T14:53:49.152Z,17.60
2022-11-10T14:56:52.673Z,17.50
2022-11-10T14:59:56.073Z,17.50
2022-11-10T15:02:59.889Z,17.50
2022-11-10T15:06:08.793Z,17.40
2022-11-10T15:09:16.456Z,17.30
2022-11-10T15:12:28.325Z,17.30
2022-11-10T15:15:31.883Z,17.20
2022-11-10T15:18:34.723Z,17.20
2022-11-10T15:21:39.039Z,17.10
2022-11-10T15:24:43.483Z,17.00
2022-11-10T15:27:56.679Z,16.90
2022-11-10T15:31:02.406Z,16.90
2022-11-10T15:34:06.414Z,16.80
2022-11-10T15:37:30.852Z,16.70
2022-11-10T15:40:36.877Z,16.70
2022-11-10T15:43:40.274Z,16.70
2022-11-10T15:46:43.170Z,16.60
2022-11-10T15:49:46.692Z,16.50
2022-11-10T15:52:50.894Z,16.50
2022-11-10T15:55:53.666Z,16.40
2022-11-10T15:59:02.124Z,16.30
2022-11-10T16:02:17.383Z,16.20
2022-11-10T16:05:20.271Z,16.20
2022-11-10T16:08:24.833Z,16.10
2022-11-10T16:11:28.317Z,16.00
2022-11-10T16:14:31.616Z,16.00
2022-11-10T16:17:35.896Z,15.90
2022-11-10T16:20:38.717Z,15.80
2022-11-10T16:23:43.357Z,15.70
2022-11-10T16:26:46.422Z,15.60
2022-11-10T16:29:49.748Z,15.60
2022-11-10T16:32:52.710Z,15.50
2022-11-10T16:35:57.060Z,15.40
2022-11-10T16:39:03.576Z,15.40
2022-11-10T16:42:06.410Z,15.20
2022-11-10T16:45:15.946Z,15.20
2022-11-10T16:48:23.259Z,15.20
2022-11-10T16:51:30.255Z,15.10
2022-11-10T16:54:34.635Z,15.00
2022-11-10T16:57:40.091Z,14.90
2022-11-10T17:00:43.160Z,14.80
2022-11-10T17:03:48.613Z,14.80
2022-11-10T17:06:51.496Z,14.70
2022-11-10T17:09:57.323Z,14.60
2022-11-10T17:13:00.134Z,14.60
2022-11-10T17:16:05.618Z,14.60
2022-11-10T17:19:14.976Z,14.60
2022-11-10T17:22:21.828Z,14.50
2022-11-10T17:25:29.697Z,14.50
2022-11-10T17:28:32.826Z,14.40
2022-11-10T17:31:35.622Z,14.30
2022-11-10T17:34:38.409Z,14.00
2022-11-10T17:37:42.835Z,14.00
2022-11-10T17:40:46.955Z,13.90
2022-11-10T17:43:49.769Z,13.80
2022-11-10T17:46:52.551Z,13.80
2022-11-10T17:49:55.328Z,13.60
2022-11-10T17:52:58.220Z,13.40
2022-11-10T17:56:02.351Z,13.50
2022-11-10T17:59:05.314Z,13.50
2022-11-10T18:02:09.894Z,13.30
2022-11-10T18:05:13.480Z,13.30
2022-11-10T18:08:17.928Z,13.20
2022-11-10T18:11:22.071Z,13.20
2022-11-10T18:14:24.866Z,13.30
2022-11-10T18:17:27.705Z,13.30
2022-11-10T18:20:30.602Z,13.40
2022-11-10T18:23:33.623Z,13.40
2022-11-10T18:26:37.749Z,13.30
2022-11-10T18:29:40.526Z,13.20
2022-11-10T18:32:43.285Z,13.20
2022-11-10T18:35:46.060Z,13.20
2022-11-10T18:38:48.862Z,13.00
2022-11-10T18:41:53.211Z,13.00
2022-11-10T18:44:56.007Z,13.00
2022-11-10T18:48:03.227Z,12.90
2022-11-10T18:51:07.111Z,12.80
2022-11-10T18:54:10.042Z,12.80
2022-11-10T18:57:16.466Z,12.80
2022-11-10T19:00:19.556Z,12.80
2022-11-10T19:03:22.643Z,12.90
2022-11-10T19:06:25.700Z,12.80
2022-11-10T19:09:28.486Z,12.80
2022-11-10T19:12:33.844Z,12.70
2022-11-10T19:15:41.295Z,12.70
2022-11-10T19:18:44.670Z,12.60
2022-11-10T19:21:47.451Z,12.50
2022-11-10T19:25:19.939Z,12.50
2022-11-10T19:28:14.421Z,12.50
2022-11-10T19:31:19.579Z,12.50
2022-11-10T19:34:22.472Z,12.50
2022-11-10T19:37:26.224Z,12.30
2022-11-10T19:40:30.432Z,12.30
2022-11-10T19:43:34.691Z,12.10
2022-11-10T19:46:38.898Z,12.30
2022-11-10T19:49:41.739Z,12.30
2022-11-10T19:52:44.781Z,12.30
2022-11-10T19:55:47.688Z,12.20
2022-11-10T19:58:52.843Z,12.10
2022-11-10T20:01:59.181Z,12.10
2022-11-10T20:05:14.017Z,12.00
2022-11-10T20:08:16.934Z,11.90
2022-11-10T20:11:22.368Z,12.00
2022-11-10T20:14:27.142Z,12.00
2022-11-10T20:17:29.939Z,12.00
2022-11-10T20:20:32.779Z,12.00
2022-11-10T20:23:35.639Z,11.90
2022-11-10T20:26:38.423Z,11.80
2022-11-10T20:29:43.946Z,11.70
2022-11-10T20:32:46.822Z,11.60
2022-11-10T20:35:49.627Z,11.70
2022-11-10T20:38:53.560Z,11.70
2022-11-10T20:41:56.381Z,11.80
2022-11-10T20:45:00.641Z,11.80
2022-11-10T20:48:03.448Z,11.50
2022-11-10T20:51:09.932Z,11.40
2022-11-10T20:54:14.952Z,11.20
2022-11-10T20:57:17.820Z,11.20
2022-11-10T21:00:22.067Z,11.30
2022-11-10T21:03:25.122Z,11.30
2022-11-10T21:06:28.178Z,11.30
2022-11-10T21:09:31.044Z,11.30
2022-11-10T21:12:51.747Z,11.30
2022-11-10T21:15:57.769Z,11.30
2022-11-10T21:19:01.268Z,11.20
2022-11-10T21:22:04.123Z,11.20
2022-11-10T21:25:08.267Z,11.20
2022-11-10T21:28:11.136Z,11.10
2022-11-10T21:31:15.685Z,11.00
2022-11-10T21:34:18.464Z,11.00
2022-11-10T21:37:21.238Z,11.10
2022-11-10T21:40:25.192Z,11.10
2022-11-10T21:43:27.989Z,10.80
2022-11-10T21:46:32.147Z,10.80
2022-11-10T21:49:34.910Z,10.90
2022-11-10T21:52:37.691Z,11.00
2022-11-10T21:55:40.520Z,10.90
2022-11-10T21:58:43.291Z,10.80
2022-11-10T22:01:47.488Z,10.90
2022-11-10T22:04:50.298Z,10.90
2022-11-10T22:07:53.106Z,10.90
2022-11-10T22:11:13.442Z,10.80
2022-11-10T22:14:33.624Z,10.80
2022-11-10T22:17:55.152Z,10.70
2022-11-10T22:20:58.119Z,10.70
2022-11-10T22:24:18.684Z,10.70
2022-11-10T22:27:21.469Z,10.60
2022-11-10T22:30:24.269Z,10.60
2022-11-10T22:33:28.402Z,10.50
2022-11-10T22:36:31.285Z,10.50
2022-11-10T22:39:51.979Z,10.50
2022-11-10T22:43:12.386Z,10.30
2022-11-10T22:46:15.198Z,10.50
2022-11-10T22:49:21.346Z,10.40
2022-11-10T22:52:24.140Z,10.40
2022-11-10T22:55:26.963Z,10.40
2022-11-10T22:58:30.008Z,10.30
2022-11-10T23:01:33.195Z,10.10
2022-11-10T23:04:37.364Z,10.20
2022-11-10T23:07:40.411Z,10.20
2022-11-10T23:10:43.208Z,10.00
2022-11-10T23:13:46.370Z,10.00
2022-11-10T23:16:49.159Z,9.80
2022-11-10T23:19:53.280Z,9.90
2022-11-10T23:22:56.237Z,10.10
2022-11-10T23:26:00.428Z,10.20
2022-11-10T23:29:03.319Z,10.20
2022-11-10T23:32:06.564Z,10.20
2022-11-10T23:35:10.871Z,10.10
2022-11-10T23:38:13.627Z,10.00
2022-11-10T23:41:18.547Z,10.00
2022-11-10T23:44:21.720Z,10.00
2022-11-10T23:47:24.790Z,9.90
2022-11-10T23:50:28.927Z,9.90
2022-11-10T23:53:32.135Z,9.90
2022-11-10T23:56:35.194Z,9.90
2022-11-10T23:59:37.980Z,9.90
